Terminal Aerodrome Forecast
Issued by NWS

Home | Current Version | Previous Version | Text Only | Print | Product List | Glossary On
Versions: 1 2 3 4 5 6 7 8 9 10 11 12 13
000
FTUS43 KILX 300600 AAA
TAFBMI
TAF AMD
KBMI 300625Z 3006/0106 04013G18KT 2SM BR OVC002
      TEMPO 3006/3009 1SM BR OVC001
     FM301600 06010KT P6SM SCT006 BKN012
     FM301900 06010KT P6SM BKN020
     FM010000 07009KT P6SM SCT025=

USA.gov is the U.S. government's official web portal to all federal, state and local government web resources and services.